Time;durP1;ratioP1;P1;durP2;ratioP2;P2;SDS_P1;SDS_P2;PMS_P1;PMS_P2;Temp;Humidity;BMP_temperature;BMP_pressure;BME280_temperature;BME280_humidity;BME280_pressure;Samples;Min_cycle;Max_cycle;Signal;HPM_P1;HPM_P2
2023/06/15 00:01:59;;;;;;;3.67;3.37;;;14.10;99.90;;;;;;5088276;28;20549;-71
2023/06/15 00:04:26;;;;;;;4.07;3.67;;;14.10;99.90;;;;;;5089309;28;20553;-71
2023/06/15 00:06:53;;;;;;;3.70;3.40;;;14.10;99.90;;;;;;5088474;28;20454;-71
2023/06/15 00:09:21;;;;;;;3.90;3.43;;;14.10;99.90;;;;;;5089150;28;20489;-71
2023/06/15 00:11:48;;;;;;;4.33;3.90;;;14.00;99.90;;;;;;5088061;28;20488;-71
2023/06/15 00:14:15;;;;;;;5.57;4.00;;;14.00;99.90;;;;;;5088376;28;20457;-71
2023/06/15 00:16:42;;;;;;;3.50;3.20;;;14.00;99.90;;;;;;5089106;28;20475;-71
2023/06/15 00:19:09;;;;;;;3.60;3.30;;;14.00;99.90;;;;;;5088796;28;20925;-71
2023/06/15 00:21:40;;;;;;;3.70;3.40;;;14.00;99.90;;;;;;5087853;28;20462;-71
2023/06/15 00:24:07;;;;;;;4.83;4.10;;;14.00;99.90;;;;;;5088467;28;20485;-72
2023/06/15 00:26:35;;;;;;;5.27;4.20;;;14.00;99.90;;;;;;5089122;28;20484;-70
2023/06/15 00:29:02;;;;;;;3.60;3.30;;;14.00;99.90;;;;;;5086961;28;20485;-71
2023/06/15 00:31:29;;;;;;;4.13;3.30;;;14.00;99.90;;;;;;5088328;28;21220;-71
2023/06/15 00:33:56;;;;;;;4.37;3.70;;;14.10;99.90;;;;;;5088813;28;20489;-71
2023/06/15 00:36:23;;;;;;;3.80;3.40;;;14.10;99.90;;;;;;5088044;28;20454;-71
2023/06/15 00:38:49;;;;;;;4.07;3.63;;;14.10;99.90;;;;;;5087864;28;20596;-71
2023/06/15 00:41:16;;;;;;;4.60;3.60;;;14.10;99.90;;;;;;5090785;28;20514;-72
2023/06/15 00:43:44;;;;;;;4.13;3.73;;;14.10;99.90;;;;;;5091629;28;20465;-71
2023/06/15 00:46:12;;;;;;;4.83;3.50;;;14.20;99.90;;;;;;5092191;28;20478;-71
2023/06/15 00:48:39;;;;;;;4.70;3.43;;;14.20;99.90;;;;;;5091965;28;20876;-71
2023/06/15 00:51:08;;;;;;;4.17;3.87;;;14.20;99.90;;;;;;5091241;28;20830;-70
2023/06/15 00:53:35;;;;;;;3.47;3.17;;;14.10;99.90;;;;;;5091865;28;20485;-71
2023/06/15 00:56:03;;;;;;;4.20;3.80;;;14.10;99.90;;;;;;5092311;28;20464;-71
2023/06/15 00:58:30;;;;;;;3.50;3.20;;;14.10;99.90;;;;;;5091477;28;20542;-71
2023/06/15 01:00:58;;;;;;;3.93;3.63;;;14.10;99.90;;;;;;5091443;28;20932;-71
2023/06/15 01:03:24;;;;;;;4.63;3.70;;;14.20;99.90;;;;;;5091808;28;20462;-71
2023/06/15 01:05:54;;;;;;;3.73;3.30;;;14.10;99.90;;;;;;5092249;28;20924;-70
2023/06/15 01:08:24;;;;;;;3.20;2.90;;;14.10;99.90;;;;;;5085233;28;20849;-71
2023/06/15 01:10:52;;;;;;;3.70;3.40;;;14.10;99.90;;;;;;5092441;28;20460;-71
2023/06/15 01:13:21;;;;;;;3.83;3.50;;;14.10;99.90;;;;;;5092497;28;20462;-71
2023/06/15 01:15:53;;;;;;;3.70;3.40;;;14.20;99.90;;;;;;5092378;28;20477;-72
2023/06/15 01:18:23;;;;;;;4.07;3.67;;;14.20;99.90;;;;;;5092086;28;20924;-72
2023/06/15 01:20:53;;;;;;;4.27;3.87;;;14.20;99.90;;;;;;5092561;28;20453;-71
2023/06/15 01:23:32;;;;;;;4.03;3.73;;;14.20;99.90;;;;;;5092045;28;20515;-70
2023/06/15 01:26:06;;;;;;;4.10;3.40;;;14.20;99.90;;;;;;5092208;28;20498;-71
2023/06/15 01:28:35;;;;;;;3.50;3.20;;;14.10;99.90;;;;;;5091471;28;20484;-72
2023/06/15 01:31:02;;;;;;;3.60;3.30;;;14.10;99.90;;;;;;5091678;28;20515;-71
2023/06/15 01:33:30;;;;;;;3.93;3.53;;;14.10;99.90;;;;;;5091859;28;20454;-71
2023/06/15 01:35:57;;;;;;;4.07;3.73;;;14.10;99.90;;;;;;5091941;28;20956;-72
2023/06/15 01:38:26;;;;;;;3.60;3.00;;;14.00;99.90;;;;;;5091647;28;20531;-71
2023/06/15 01:40:54;;;;;;;3.80;3.33;;;14.00;99.90;;;;;;5091503;28;20457;-71
2023/06/15 01:43:25;;;;;;;4.10;3.63;;;14.00;99.90;;;;;;5091733;28;20458;-71
2023/06/15 01:45:53;;;;;;;4.97;3.67;;;14.00;99.90;;;;;;5091783;28;20505;-72
2023/06/15 01:48:21;;;;;;;4.87;3.77;;;14.00;99.90;;;;;;5091712;28;20485;-71
2023/06/15 01:50:49;;;;;;;4.60;3.80;;;13.90;99.90;;;;;;5091422;28;20504;-71
2023/06/15 01:53:16;;;;;;;5.33;4.00;;;13.80;99.90;;;;;;5090935;28;20457;-71
2023/06/15 01:55:42;;;;;;;4.07;3.77;;;13.80;99.90;;;;;;5091609;28;20933;-71
2023/06/15 01:58:11;;;;;;;4.27;3.50;;;13.80;99.90;;;;;;5091301;28;20551;-71
2023/06/15 02:00:39;;;;;;;3.97;3.57;;;13.70;99.90;;;;;;5091384;28;20941;-70
2023/06/15 02:03:05;;;;;;;4.03;3.63;;;13.70;99.90;;;;;;5090885;28;20889;-71
2023/06/15 02:05:38;;;;;;;3.87;3.47;;;13.70;99.90;;;;;;5091646;28;20481;-71
2023/06/15 02:08:05;;;;;;;4.87;3.67;;;13.70;99.90;;;;;;5091162;28;20486;-71
2023/06/15 02:10:32;;;;;;;7.50;4.03;;;13.60;99.90;;;;;;5091195;28;20464;-71
2023/06/15 02:12:59;;;;;;;4.07;3.60;;;13.60;99.90;;;;;;5090811;28;20484;-71
2023/06/15 02:15:25;;;;;;;5.10;4.13;;;13.60;99.90;;;;;;5091135;28;20458;-71
2023/06/15 02:17:59;;;;;;;4.23;3.80;;;13.50;99.90;;;;;;5090836;28;20989;-71
2023/06/15 02:20:27;;;;;;;4.30;3.90;;;13.50;99.90;;;;;;5091165;28;20469;-70
2023/06/15 02:22:57;;;;;;;3.30;3.00;;;13.50;99.90;;;;;;5090837;28;20464;-71
2023/06/15 02:25:24;;;;;;;4.30;3.90;;;13.50;99.90;;;;;;5091324;28;20882;-70
2023/06/15 02:27:50;;;;;;;4.97;3.40;;;13.50;99.90;;;;;;5090398;28;20980;-72
2023/06/15 02:30:17;;;;;;;4.23;3.83;;;13.50;99.90;;;;;;5090760;28;20466;-71
2023/06/15 02:32:45;;;;;;;3.50;3.20;;;13.50;99.90;;;;;;5090710;28;20845;-70
2023/06/15 02:35:13;;;;;;;3.90;3.60;;;13.50;99.90;;;;;;5090770;28;20944;-70
2023/06/15 02:37:41;;;;;;;3.67;2.87;;;13.40;99.90;;;;;;5090332;28;20979;-70
2023/06/15 02:40:09;;;;;;;4.10;3.70;;;13.40;99.90;;;;;;5090342;28;20461;-71
2023/06/15 02:42:37;;;;;;;3.90;3.50;;;13.40;99.90;;;;;;5090732;28;20461;-71
2023/06/15 02:45:06;;;;;;;4.30;3.90;;;13.40;99.90;;;;;;5090385;28;20465;-71
2023/06/15 02:47:33;;;;;;;3.80;3.50;;;13.30;99.90;;;;;;5089561;28;20860;-71
2023/06/15 02:50:00;;;;;;;3.70;3.40;;;13.40;99.90;;;;;;5090375;28;20965;-70
2023/06/15 02:52:30;;;;;;;4.70;3.73;;;13.30;99.90;;;;;;5090293;28;20487;-70
2023/06/15 02:54:57;;;;;;;4.70;4.23;;;13.30;99.90;;;;;;5090448;28;20961;-71
2023/06/15 02:57:24;;;;;;;4.70;4.20;;;13.30;99.90;;;;;;5090526;28;20453;-71
2023/06/15 02:59:50;;;;;;;3.67;3.30;;;13.30;99.90;;;;;;5089660;28;20486;-71
2023/06/15 03:02:20;;;;;;;4.83;3.50;;;13.20;99.90;;;;;;5090107;28;20488;-71
2023/06/15 03:04:48;;;;;;;4.17;3.77;;;13.20;99.90;;;;;;5089630;28;20945;-71
2023/06/15 03:07:16;;;;;;;4.37;3.67;;;13.20;99.90;;;;;;5090357;28;20477;-71
2023/06/15 03:09:46;;;;;;;3.83;3.20;;;13.20;99.90;;;;;;5089684;28;20870;-73
2023/06/15 03:12:13;;;;;;;3.57;3.27;;;13.20;99.90;;;;;;5089777;28;20462;-71
2023/06/15 03:14:39;;;;;;;3.93;3.53;;;13.10;99.90;;;;;;5090638;28;20841;-71
2023/06/15 03:17:09;;;;;;;4.80;4.27;;;13.10;99.90;;;;;;5090080;28;20454;-71
2023/06/15 03:19:36;;;;;;;4.00;3.43;;;13.10;99.90;;;;;;5090446;28;20513;-71
2023/06/15 03:22:03;;;;;;;4.10;3.70;;;13.00;99.90;;;;;;5089441;28;20469;-71
2023/06/15 03:24:32;;;;;;;4.23;3.53;;;13.00;99.90;;;;;;5090416;28;20464;-72
2023/06/15 03:27:03;;;;;;;3.87;3.57;;;13.00;99.90;;;;;;5090030;28;21243;-71
2023/06/15 03:29:31;;;;;;;5.00;4.50;;;13.00;99.90;;;;;;5089633;28;20985;-72
2023/06/15 03:31:58;;;;;;;4.43;3.90;;;12.90;99.90;;;;;;5088752;28;20485;-72
2023/06/15 03:34:25;;;;;;;4.27;3.83;;;12.90;99.90;;;;;;5074904;28;20945;-71
2023/06/15 03:36:52;;;;;;;4.90;4.10;;;12.80;99.90;;;;;;5074686;28;21017;-71
2023/06/15 03:39:19;;;;;;;4.20;3.80;;;12.80;99.90;;;;;;5077381;28;20473;-70
2023/06/15 03:41:46;;;;;;;3.87;3.50;;;12.70;99.90;;;;;;5074640;28;20462;-70
2023/06/15 03:44:14;;;;;;;3.63;3.33;;;12.70;99.90;;;;;;5077110;28;20464;-69
2023/06/15 03:46:41;;;;;;;4.60;4.00;;;12.70;99.90;;;;;;5077088;28;20490;-69
2023/06/15 03:49:10;;;;;;;6.70;3.93;;;12.70;99.90;;;;;;5077807;28;20584;-69
2023/06/15 03:51:37;;;;;;;6.53;3.50;;;12.70;99.90;;;;;;5073773;28;20974;-69
2023/06/15 03:54:04;;;;;;;3.83;3.43;;;12.70;99.90;;;;;;5074140;28;20538;-69
2023/06/15 03:56:31;;;;;;;5.70;3.57;;;12.70;99.90;;;;;;5078463;28;20973;-69
2023/06/15 03:58:58;;;;;;;5.10;4.13;;;12.80;99.90;;;;;;5074858;28;20479;-69
2023/06/15 04:01:26;;;;;;;4.23;3.87;;;12.90;99.90;;;;;;5076738;28;20466;-69
2023/06/15 04:03:52;;;;;;;4.30;3.90;;;12.90;99.90;;;;;;5074596;28;20458;-69
2023/06/15 04:06:21;;;;;;;4.63;3.83;;;13.00;99.90;;;;;;5077422;28;20577;-69
2023/06/15 04:08:48;;;;;;;4.50;4.10;;;13.00;99.90;;;;;;5074894;28;20480;-69
2023/06/15 04:11:15;;;;;;;3.73;3.33;;;13.00;99.90;;;;;;5077907;28;20457;-69
2023/06/15 04:13:42;;;;;;;4.50;4.10;;;13.10;99.90;;;;;;5077258;28;20949;-69
2023/06/15 04:18:38;;;;;;;4.20;3.80;;;13.20;99.90;;;;;;5050460;28;20480;-72
2023/06/15 04:21:05;;;;;;;3.73;3.43;;;13.20;99.90;;;;;;5043205;28;20471;-72
2023/06/15 04:23:32;;;;;;;6.07;4.10;;;13.30;99.90;;;;;;5043170;28;20498;-72
2023/06/15 04:26:00;;;;;;;4.07;3.67;;;13.30;99.90;;;;;;5039450;28;20801;-71
2023/06/15 04:28:27;;;;;;;4.50;4.10;;;13.20;99.90;;;;;;5036366;28;20917;-71
2023/06/15 04:31:07;;;;;;;4.10;3.70;;;13.20;99.90;;;;;;5031366;28;20460;-71
2023/06/15 04:33:33;;;;;;;4.37;3.83;;;13.30;99.90;;;;;;5041654;28;20467;-71
2023/06/15 04:36:03;;;;;;;3.80;3.23;;;13.30;99.90;;;;;;5047986;28;20463;-71
2023/06/15 04:38:30;;;;;;;4.20;3.80;;;13.40;99.90;;;;;;5049306;28;20486;-72
2023/06/15 04:40:57;;;;;;;5.10;4.20;;;13.40;99.90;;;;;;5041631;28;20485;-72
2023/06/15 04:43:24;;;;;;;3.90;3.50;;;13.50;99.90;;;;;;5040598;28;20463;-72
2023/06/15 04:45:51;;;;;;;4.40;4.00;;;13.60;99.90;;;;;;5036559;28;20648;-72
2023/06/15 04:48:19;;;;;;;6.20;3.97;;;13.70;99.90;;;;;;5034902;28;20491;-72
2023/06/15 04:50:48;;;;;;;3.90;3.60;;;13.80;99.90;;;;;;5038354;28;20495;-72
2023/06/15 04:53:17;;;;;;;4.37;3.80;;;13.90;99.90;;;;;;5042275;28;20494;-73
2023/06/15 04:55:44;;;;;;;4.90;4.50;;;14.00;99.90;;;;;;5052771;28;20986;-72
2023/06/15 04:58:12;;;;;;;3.80;3.40;;;14.20;99.90;;;;;;5036023;28;20538;-73
2023/06/15 05:00:38;;;;;;;4.53;3.70;;;14.30;99.90;;;;;;5052309;28;20550;-72
2023/06/15 05:03:05;;;;;;;5.10;3.90;;;14.50;99.90;;;;;;5035508;28;20464;-72
2023/06/15 05:05:32;;;;;;;4.43;4.03;;;14.60;99.90;;;;;;5040486;28;20471;-72
2023/06/15 05:07:58;;;;;;;3.60;3.30;;;14.70;99.90;;;;;;5032384;28;20487;-73
2023/06/15 05:10:26;;;;;;;5.23;3.60;;;14.90;99.90;;;;;;5032163;28;20848;-73
2023/06/15 05:12:53;;;;;;;5.00;4.10;;;15.10;99.90;;;;;;5032190;28;20465;-73
2023/06/15 05:15:20;;;;;;;4.50;3.83;;;15.20;99.90;;;;;;5034337;28;20466;-73
2023/06/15 05:17:47;;;;;;;3.70;3.37;;;15.40;99.90;;;;;;5052149;28;20483;-73
2023/06/15 05:20:14;;;;;;;3.37;3.07;;;15.50;99.90;;;;;;5050638;28;20467;-72
2023/06/15 05:22:41;;;;;;;4.60;3.60;;;15.60;99.90;;;;;;5040199;28;20475;-72
2023/06/15 05:25:09;;;;;;;3.97;3.57;;;15.80;99.90;;;;;;5040275;28;20464;-72
2023/06/15 05:27:37;;;;;;;6.40;3.87;;;15.90;99.90;;;;;;5043643;28;20481;-72
2023/06/15 05:30:07;;;;;;;4.63;3.87;;;16.10;99.90;;;;;;5051728;28;20467;-72
2023/06/15 05:32:37;;;;;;;4.40;3.40;;;16.20;99.90;;;;;;5051883;28;20459;-72
2023/06/15 05:35:05;;;;;;;4.00;3.60;;;16.30;99.90;;;;;;5043679;28;20562;-73
2023/06/15 05:37:33;;;;;;;4.73;3.07;;;16.50;99.90;;;;;;5039432;28;20457;-72
2023/06/15 05:39:59;;;;;;;4.90;3.67;;;16.60;99.90;;;;;;5031734;28;20526;-73
2023/06/15 05:42:26;;;;;;;3.30;3.00;;;16.80;99.90;;;;;;5039789;28;20468;-72
2023/06/15 05:44:55;;;;;;;3.93;3.60;;;16.90;99.90;;;;;;5031776;28;20542;-73
2023/06/15 05:47:21;;;;;;;3.60;3.27;;;17.00;99.90;;;;;;5031728;28;20488;-73
2023/06/15 05:49:48;;;;;;;7.80;3.43;;;17.10;99.90;;;;;;5037235;28;20885;-72
2023/06/15 05:52:17;;;;;;;4.53;3.53;;;17.20;99.90;;;;;;5041885;28;20513;-72
2023/06/15 05:54:45;;;;;;;3.50;3.20;;;17.30;99.90;;;;;;5036977;28;21379;-73
2023/06/15 05:57:12;;;;;;;4.60;3.47;;;17.30;99.90;;;;;;5043016;28;20465;-72
2023/06/15 05:59:39;;;;;;;3.70;3.40;;;17.30;99.90;;;;;;5046991;28;20979;-73
2023/06/15 06:02:08;;;;;;;6.40;3.70;;;17.40;99.90;;;;;;5039350;28;20472;-72
2023/06/15 06:04:35;;;;;;;3.60;3.10;;;17.40;99.90;;;;;;5031635;28;20456;-73
2023/06/15 06:07:02;;;;;;;4.03;3.70;;;17.40;99.90;;;;;;5046936;28;20487;-73
2023/06/15 06:09:29;;;;;;;5.53;3.77;;;17.50;99.90;;;;;;5048242;28;20491;-74
2023/06/15 06:11:56;;;;;;;4.50;4.10;;;17.50;99.90;;;;;;5045786;28;20455;-73
2023/06/15 06:14:23;;;;;;;4.77;3.80;;;17.50;99.90;;;;;;5042957;28;20463;-72
2023/06/15 06:16:50;;;;;;;3.60;3.30;;;17.60;99.90;;;;;;5042780;28;20459;-73
2023/06/15 06:19:18;;;;;;;3.53;3.23;;;17.60;99.90;;;;;;5051160;28;20567;-73
2023/06/15 06:21:44;;;;;;;5.40;3.50;;;17.60;99.90;;;;;;5045897;28;20457;-72
2023/06/15 06:24:11;;;;;;;4.80;3.10;;;17.70;99.90;;;;;;5039224;28;20464;-72
2023/06/15 06:26:38;;;;;;;4.07;3.77;;;17.80;99.90;;;;;;5035054;28;20487;-73
2023/06/15 06:29:04;;;;;;;5.00;3.60;;;17.80;99.90;;;;;;5034820;28;21015;-73
2023/06/15 06:31:31;;;;;;;4.13;3.73;;;17.90;99.90;;;;;;5038534;28;20460;-73
2023/06/15 06:33:58;;;;;;;4.73;3.67;;;17.90;99.90;;;;;;5030792;28;20464;-73
2023/06/15 06:36:26;;;;;;;3.97;3.40;;;18.00;99.90;;;;;;5037674;28;20823;-73
2023/06/15 06:38:53;;;;;;;4.60;4.20;;;18.10;99.90;;;;;;5038863;28;20483;-73
2023/06/15 06:41:20;;;;;;;3.90;3.60;;;18.20;99.90;;;;;;5044772;28;20464;-73
2023/06/15 06:43:46;;;;;;;4.20;3.80;;;18.20;99.90;;;;;;5037139;28;20476;-73
2023/06/15 06:46:14;;;;;;;4.10;3.70;;;18.20;99.90;;;;;;5038811;28;20468;-72
2023/06/15 06:48:41;;;;;;;4.60;3.53;;;18.30;99.90;;;;;;5038853;28;20839;-73
2023/06/15 06:51:08;;;;;;;5.17;3.60;;;18.30;99.90;;;;;;5038433;28;20464;-73
2023/06/15 06:53:36;;;;;;;4.30;3.90;;;18.30;99.90;;;;;;5038359;28;20467;-73
2023/06/15 06:56:03;;;;;;;5.00;4.00;;;18.40;99.90;;;;;;5038548;28;20464;-73
2023/06/15 06:58:30;;;;;;;4.20;3.80;;;18.40;99.90;;;;;;5041373;28;23342;-73
2023/06/15 07:00:57;;;;;;;3.80;3.20;;;18.50;99.90;;;;;;5044426;28;20468;-73
2023/06/15 07:03:24;;;;;;;4.67;4.27;;;18.50;99.90;;;;;;5049794;28;20466;-73
2023/06/15 07:05:50;;;;;;;4.60;4.20;;;18.60;99.90;;;;;;5044718;28;20460;-73
2023/06/15 07:08:18;;;;;;;4.70;4.30;;;18.60;99.90;;;;;;5037701;28;20488;-73
2023/06/15 07:10:46;;;;;;;4.30;3.90;;;18.70;99.90;;;;;;5038313;28;20456;-73
2023/06/15 07:13:12;;;;;;;4.10;3.70;;;18.70;99.90;;;;;;5030286;28;20464;-73
2023/06/15 07:15:39;;;;;;;3.60;3.30;;;18.80;99.90;;;;;;5038074;28;20468;-73
2023/06/15 07:18:07;;;;;;;4.37;3.40;;;18.90;99.90;;;;;;5038330;28;20483;-73
2023/06/15 07:20:33;;;;;;;4.50;4.10;;;19.00;99.90;;;;;;5038004;28;20464;-73
2023/06/15 07:23:00;;;;;;;4.37;3.97;;;19.00;99.90;;;;;;5029902;28;20959;-73
2023/06/15 07:25:27;;;;;;;4.47;3.60;;;19.10;99.90;;;;;;5038383;28;20467;-72
2023/06/15 07:27:55;;;;;;;5.07;4.20;;;19.20;99.90;;;;;;5029881;28;20476;-73
2023/06/15 07:30:21;;;;;;;5.30;3.93;;;19.30;99.90;;;;;;5029890;28;20566;-73
2023/06/15 07:32:48;;;;;;;4.13;3.73;;;19.40;99.90;;;;;;5034794;28;20498;-73
2023/06/15 07:35:15;;;;;;;3.63;3.23;;;19.40;99.90;;;;;;5041642;28;20464;-71
2023/06/15 07:37:42;;;;;;;5.17;3.80;;;19.50;99.90;;;;;;5037300;28;20464;-71
2023/06/15 07:40:09;;;;;;;4.83;3.90;;;19.60;99.90;;;;;;5037961;28;20488;-73
2023/06/15 07:42:36;;;;;;;4.00;3.60;;;19.60;99.60;;;;;;5037951;28;20829;-73
2023/06/15 07:45:05;;;;;;;5.87;3.63;;;19.70;99.00;;;;;;5038150;28;20464;-73
2023/06/15 07:47:31;;;;;;;8.67;3.50;;;19.80;99.00;;;;;;5029731;28;20488;-73
2023/06/15 07:49:58;;;;;;;4.50;3.80;;;19.80;99.20;;;;;;5036297;28;20471;-72
2023/06/15 07:52:25;;;;;;;3.70;3.40;;;19.90;98.70;;;;;;5035343;28;20471;-72
2023/06/15 07:54:51;;;;;;;5.10;3.77;;;19.90;98.60;;;;;;5042071;28;21301;-72
2023/06/15 07:57:18;;;;;;;4.77;4.13;;;20.00;99.60;;;;;;5033860;28;20460;-72
2023/06/15 07:59:45;;;;;;;3.90;3.37;;;20.00;99.20;;;;;;5041717;28;20489;-73
2023/06/15 08:02:13;;;;;;;3.93;3.53;;;20.00;99.60;;;;;;5033454;28;20471;-73
2023/06/15 08:04:39;;;;;;;5.73;4.07;;;20.10;99.30;;;;;;5041049;28;20469;-73
2023/06/15 08:07:07;;;;;;;3.57;3.27;;;20.10;99.50;;;;;;5052941;28;20845;-72
2023/06/15 08:09:34;;;;;;;3.97;3.67;;;20.20;99.20;;;;;;5052794;28;20480;-73
2023/06/15 08:12:01;;;;;;;4.57;4.00;;;20.30;98.30;;;;;;5051816;28;20914;-72
2023/06/15 08:14:28;;;;;;;3.93;3.20;;;20.40;99.20;;;;;;5052994;28;20464;-73
2023/06/15 08:16:55;;;;;;;4.37;3.97;;;20.50;99.00;;;;;;5039274;28;20477;-73
2023/06/15 08:19:23;;;;;;;3.70;3.40;;;20.70;98.70;;;;;;5034090;28;20510;-73
2023/06/15 08:21:50;;;;;;;7.03;4.10;;;20.70;98.70;;;;;;5039770;28;20471;-72
2023/06/15 08:24:17;;;;;;;3.90;3.27;;;20.80;99.90;;;;;;5032659;28;20984;-72
2023/06/15 08:26:43;;;;;;;4.00;3.70;;;20.90;99.60;;;;;;5041173;28;20923;-73
2023/06/15 08:29:10;;;;;;;4.17;3.77;;;21.00;98.70;;;;;;5040937;28;20497;-72
2023/06/15 08:31:38;;;;;;;4.40;3.73;;;21.10;98.50;;;;;;5040719;28;20808;-73
2023/06/15 08:34:04;;;;;;;4.30;3.90;;;21.20;97.30;;;;;;5032747;28;20886;-73
2023/06/15 08:36:33;;;;;;;4.20;3.73;;;21.30;98.30;;;;;;5031895;28;20466;-73
2023/06/15 08:39:00;;;;;;;4.03;3.63;;;21.40;97.60;;;;;;5032528;28;20478;-72
2023/06/15 08:41:27;;;;;;;4.97;3.70;;;21.40;96.90;;;;;;5032191;28;20499;-73
2023/06/15 08:43:55;;;;;;;3.87;3.57;;;21.50;97.30;;;;;;5032415;28;20836;-73
2023/06/15 08:46:23;;;;;;;4.37;3.97;;;21.60;96.90;;;;;;5049609;28;20458;-73
2023/06/15 08:48:53;;;;;;;6.40;4.07;;;21.70;98.80;;;;;;5051543;28;20490;-73
2023/06/15 08:51:22;;;;;;;4.07;3.60;;;21.80;96.60;;;;;;5051826;28;20971;-73
2023/06/15 08:53:54;;;;;;;3.93;3.57;;;21.80;97.10;;;;;;5051788;28;20463;-73
2023/06/15 08:56:21;;;;;;;5.13;3.50;;;21.80;98.10;;;;;;5051412;28;20469;-72
2023/06/15 08:58:50;;;;;;;4.20;3.73;;;21.80;97.60;;;;;;5044590;28;20982;-73
2023/06/15 09:01:20;;;;;;;3.97;3.57;;;21.80;97.30;;;;;;5043069;28;20460;-73
2023/06/15 09:03:46;;;;;;;4.60;4.20;;;22.00;97.30;;;;;;5031563;28;20980;-71
2023/06/15 09:06:14;;;;;;;3.93;3.17;;;22.00;96.70;;;;;;5048054;28;20495;-71
2023/06/15 09:08:40;;;;;;;3.40;3.10;;;21.90;97.00;;;;;;5048448;28;20502;-73
2023/06/15 09:11:09;;;;;;;4.20;3.77;;;22.00;97.40;;;;;;5039643;28;20476;-71
2023/06/15 09:13:36;;;;;;;4.37;3.60;;;22.10;97.20;;;;;;5050293;28;20466;-73
2023/06/15 09:16:05;;;;;;;4.07;3.60;;;22.20;97.40;;;;;;5051588;28;20459;-73
2023/06/15 09:18:43;;;;;;;4.07;3.37;;;22.40;96.80;;;;;;5051211;28;20487;-73
2023/06/15 09:21:12;;;;;;;3.47;3.17;;;22.50;96.60;;;;;;5051415;28;20468;-73
2023/06/15 09:23:41;;;;;;;4.10;3.70;;;22.60;97.50;;;;;;5042695;28;20889;-73
2023/06/15 09:26:10;;;;;;;3.80;3.43;;;22.70;96.50;;;;;;5051165;28;20989;-73
2023/06/15 09:28:45;;;;;;;3.47;3.17;;;22.90;95.70;;;;;;5051402;28;20493;-73
2023/06/15 09:31:27;;;;;;;3.70;3.40;;;23.00;96.00;;;;;;5044115;28;20468;-73
2023/06/15 09:34:01;;;;;;;5.23;3.30;;;23.10;95.50;;;;;;5039761;28;20541;-73
2023/06/15 09:36:28;;;;;;;3.47;3.17;;;23.20;94.30;;;;;;5047481;28;20506;-72
2023/06/15 09:38:58;;;;;;;6.70;3.50;;;23.00;94.80;;;;;;5039526;28;20886;-73
2023/06/15 09:41:26;;;;;;;3.93;3.53;;;23.10;95.50;;;;;;5039448;28;20540;-73
2023/06/15 09:43:54;;;;;;;3.10;2.83;;;23.20;96.00;;;;;;5031175;28;20540;-73
2023/06/15 09:46:21;;;;;;;3.27;3.00;;;23.30;96.40;;;;;;5039652;28;20465;-73
2023/06/15 09:48:48;;;;;;;3.50;3.20;;;23.30;94.30;;;;;;5039248;28;20480;-73
2023/06/15 09:51:16;;;;;;;3.80;2.97;;;23.40;93.10;;;;;;5031611;28;20465;-73
2023/06/15 09:53:44;;;;;;;3.57;3.27;;;23.60;93.50;;;;;;5042147;28;21122;-74
2023/06/15 09:56:11;;;;;;;3.83;3.53;;;23.80;94.20;;;;;;5050901;28;20463;-73
2023/06/15 09:58:39;;;;;;;3.23;2.97;;;23.70;93.50;;;;;;5050893;28;20856;-73
2023/06/15 10:01:10;;;;;;;3.50;3.20;;;23.40;92.70;;;;;;5049546;28;20462;-73
2023/06/15 10:03:43;;;;;;;2.83;2.63;;;23.10;93.20;;;;;;5050692;28;20464;-73
2023/06/15 10:06:15;;;;;;;2.93;2.70;;;22.90;92.80;;;;;;5050812;28;21007;-74
2023/06/15 10:08:45;;;;;;;4.00;3.20;;;22.60;94.30;;;;;;5050136;28;20487;-73
2023/06/15 10:11:12;;;;;;;3.00;2.70;;;22.70;93.80;;;;;;5050342;28;20466;-73
2023/06/15 10:13:49;;;;;;;3.53;3.20;;;23.00;94.30;;;;;;5049283;28;20459;-73
2023/06/15 10:16:17;;;;;;;3.43;2.87;;;23.30;93.70;;;;;;5050291;28;20496;-73
2023/06/15 10:18:45;;;;;;;4.43;3.60;;;23.40;92.60;;;;;;5050511;28;20843;-73
2023/06/15 10:21:16;;;;;;;3.50;3.20;;;23.30;93.60;;;;;;5050318;28;20474;-73
2023/06/15 10:23:43;;;;;;;3.50;3.10;;;23.10;92.10;;;;;;5049871;28;20468;-73
2023/06/15 10:26:10;;;;;;;4.43;3.33;;;22.90;92.70;;;;;;5049803;28;20463;-73
2023/06/15 10:28:46;;;;;;;3.53;3.17;;;22.90;92.80;;;;;;5050097;28;20869;-72
2023/06/15 10:31:17;;;;;;;3.43;3.00;;;23.10;93.70;;;;;;5049865;28;20463;-73
2023/06/15 10:33:50;;;;;;;3.40;3.17;;;23.30;93.10;;;;;;5049816;28;20486;-73
2023/06/15 10:36:23;;;;;;;3.00;2.70;;;23.60;92.90;;;;;;5049639;28;20469;-73
2023/06/15 10:38:57;;;;;;;4.30;3.07;;;23.90;92.00;;;;;;5045603;28;20485;-73
2023/06/15 10:41:26;;;;;;;3.37;3.17;;;24.20;92.40;;;;;;5044511;28;20467;-73
2023/06/15 10:44:01;;;;;;;3.60;3.30;;;24.40;92.00;;;;;;5049427;28;20469;-73
2023/06/15 10:46:29;;;;;;;3.03;2.83;;;24.60;93.20;;;;;;5042387;28;20984;-73
2023/06/15 10:49:02;;;;;;;3.27;3.07;;;24.80;92.50;;;;;;5048749;28;20485;-73
2023/06/15 10:51:29;;;;;;;3.20;2.70;;;24.90;91.10;;;;;;5049746;28;20459;-73
2023/06/15 10:53:57;;;;;;;3.40;3.10;;;25.10;91.10;;;;;;5049460;28;20475;-73
2023/06/15 10:56:27;;;;;;;3.20;2.90;;;25.20;91.20;;;;;;5050033;28;20979;-73
2023/06/15 10:58:56;;;;;;;3.67;3.17;;;25.30;89.00;;;;;;5049496;28;20517;-73
2023/06/15 11:01:26;;;;;;;3.47;3.17;;;25.30;93.50;;;;;;5049496;28;20463;-73
2023/06/15 11:03:54;;;;;;;3.03;2.83;;;25.40;90.10;;;;;;5049400;28;20464;-73
2023/06/15 11:06:22;;;;;;;3.30;3.00;;;25.40;91.30;;;;;;5049914;28;20491;-73
2023/06/15 11:08:50;;;;;;;3.00;2.57;;;25.50;90.70;;;;;;5041102;28;20481;-73
2023/06/15 11:11:20;;;;;;;3.63;3.30;;;25.60;91.40;;;;;;5049688;28;20863;-73
2023/06/15 11:14:00;;;;;;;3.30;3.00;;;25.80;89.00;;;;;;5048971;28;20459;-73
2023/06/15 11:16:30;;;;;;;3.67;2.90;;;25.80;91.10;;;;;;5049350;28;20467;-73
2023/06/15 11:18:58;;;;;;;4.57;2.80;;;25.90;91.50;;;;;;5049543;28;20492;-71
2023/06/15 11:21:28;;;;;;;3.03;2.67;;;26.00;88.50;;;;;;5049365;28;20463;-73
2023/06/15 11:23:57;;;;;;;3.00;2.80;;;25.90;89.20;;;;;;5048883;28;20463;-73
2023/06/15 11:26:27;;;;;;;3.00;2.70;;;25.60;87.60;;;;;;5048731;28;20970;-74
2023/06/15 11:28:57;;;;;;;4.20;2.77;;;25.20;88.00;;;;;;5049103;28;20482;-74
2023/06/15 11:31:24;;;;;;;3.30;3.00;;;24.90;86.90;;;;;;5049208;28;20470;-74
2023/06/15 11:33:52;;;;;;;2.77;2.50;;;24.60;88.40;;;;;;5049140;28;20461;-73
2023/06/15 11:36:19;;;;;;;3.57;3.27;;;24.40;91.70;;;;;;5050080;28;20466;-73
2023/06/15 11:38:45;;;;;;;3.50;3.20;;;24.40;91.50;;;;;;5049175;28;20514;-73
2023/06/15 11:41:13;;;;;;;3.43;3.13;;;24.60;93.10;;;;;;5049696;28;20835;-73
2023/06/15 11:43:41;;;;;;;3.50;3.20;;;24.90;92.20;;;;;;5049456;28;20464;-73
2023/06/15 11:46:12;;;;;;;3.93;3.33;;;24.90;90.40;;;;;;5049459;28;20463;-73
2023/06/15 11:48:39;;;;;;;4.70;3.30;;;24.90;91.20;;;;;;5049765;28;20543;-73
2023/06/15 11:51:09;;;;;;;3.60;3.30;;;25.10;92.50;;;;;;5040873;28;20479;-73
2023/06/15 11:53:37;;;;;;;3.50;3.20;;;25.40;91.90;;;;;;5049089;28;20954;-73
2023/06/15 11:56:04;;;;;;;3.10;2.90;;;25.40;90.90;;;;;;5044617;28;20467;-73
2023/06/15 11:58:31;;;;;;;3.60;3.30;;;25.50;92.00;;;;;;5029603;28;21011;-73
2023/06/15 12:00:58;;;;;;;3.13;2.93;;;25.70;92.00;;;;;;5033416;28;20467;-73
2023/06/15 12:03:27;;;;;;;2.83;2.63;;;25.80;91.80;;;;;;5041373;28;20472;-73
2023/06/15 12:05:58;;;;;;;3.30;3.10;;;25.80;91.20;;;;;;5032988;28;20463;-73
2023/06/15 12:08:28;;;;;;;3.23;2.93;;;26.00;91.20;;;;;;5049375;28;20487;-73
2023/06/15 12:10:57;;;;;;;3.07;2.63;;;26.20;88.80;;;;;;5040996;28;20524;-73
2023/06/15 12:13:24;;;;;;;2.70;2.50;;;26.20;90.40;;;;;;5049264;28;20975;-73
2023/06/15 12:15:51;;;;;;;2.77;2.57;;;26.30;85.90;;;;;;5029184;28;20471;-73
2023/06/15 12:18:19;;;;;;;3.20;2.90;;;26.30;88.80;;;;;;5036258;28;20485;-73
2023/06/15 12:20:47;;;;;;;3.10;2.70;;;26.40;90.40;;;;;;5038487;28;20461;-73
2023/06/15 12:23:27;;;;;;;3.30;3.00;;;26.30;87.80;;;;;;5035113;28;20538;-73
2023/06/15 12:25:56;;;;;;;3.40;3.10;;;26.40;90.90;;;;;;5049280;28;20463;-73
2023/06/15 12:28:25;;;;;;;3.50;3.20;;;26.60;90.30;;;;;;5033494;28;20489;-73
2023/06/15 12:30:56;;;;;;;3.90;3.13;;;26.80;88.60;;;;;;5028850;28;20459;-73
2023/06/15 12:33:28;;;;;;;3.37;3.07;;;26.90;85.70;;;;;;5044977;28;20457;-72
2023/06/15 12:35:57;;;;;;;3.60;2.97;;;27.00;83.10;;;;;;5041325;28;20469;-73
2023/06/15 12:38:26;;;;;;;3.50;3.20;;;26.90;85.70;;;;;;5037211;28;20494;-72
2023/06/15 12:40:53;;;;;;;3.10;2.90;;;26.90;86.30;;;;;;5032321;28;20470;-73
2023/06/15 12:43:21;;;;;;;2.70;2.50;;;27.00;81.90;;;;;;5041125;28;20946;-73
2023/06/15 12:45:48;;;;;;;3.40;3.10;;;27.00;85.20;;;;;;5032648;28;20473;-73
2023/06/15 12:48:15;;;;;;;2.80;2.60;;;27.10;86.50;;;;;;5041011;28;20632;-72
2023/06/15 12:50:42;;;;;;;2.87;2.67;;;27.00;88.00;;;;;;5040895;28;20607;-72
2023/06/15 12:53:09;;;;;;;3.43;3.13;;;27.00;86.60;;;;;;5032111;28;20489;-72
2023/06/15 12:55:37;;;;;;;3.93;3.10;;;27.00;84.90;;;;;;5032667;28;20458;-72